Terminal Aerodrome Forecast
Issued by NWS

Home | Current Version | Previous Version | Text Only | Print | Product List | Glossary On
Versions: 1 2 3 4 5 6 7 8 9 10 11 12 13 14 15
000
FTUS42 KTBW 221742
TAFLAL
TAF
KLAL 221742Z 2218/2318 21025G35KT P6SM BKN025
     FM222100 21022G28KT P6SM SHRA SCT030 BKN060
      TEMPO 2221/2224 VRB40G60KT 1SM +TSRA BKN010CB
     FM230400 23020G30KT P6SM VCTS BKN020CB
     FM230600 24018G28KT P6SM VCTS SCT035CB
     FM231200 28013G21KT P6SM SCT030 BKN040
     FM231500 26017G27KT P6SM BKN030=

USA.gov is the U.S. government's official web portal to all federal, state and local government web resources and services.